sensor_id;sensor_type;location;lat;lon;timestamp;P1;durP1;ratioP1;P2;durP2;ratioP2
18905;SDS011;9585;51.018;4.282;2023-11-18T00:01:26;8.30;;;7.30;;
18905;SDS011;9585;51.018;4.282;2023-11-18T00:03:58;7.63;;;6.45;;
18905;SDS011;9585;51.018;4.282;2023-11-18T00:06:26;7.95;;;6.88;;
18905;SDS011;9585;51.018;4.282;2023-11-18T00:08:53;7.32;;;6.50;;
18905;SDS011;9585;51.018;4.282;2023-11-18T00:11:21;8.02;;;6.20;;
18905;SDS011;9585;51.018;4.282;2023-11-18T00:13:49;6.45;;;5.85;;
18905;SDS011;9585;51.018;4.282;2023-11-18T00:16:17;10.18;;;8.38;;
18905;SDS011;9585;51.018;4.282;2023-11-18T00:18:56;16.13;;;11.07;;
18905;SDS011;9585;51.018;4.282;2023-11-18T00:21:24;14.85;;;11.00;;
18905;SDS011;9585;51.018;4.282;2023-11-18T00:23:53;17.00;;;10.95;;
18905;SDS011;9585;51.018;4.282;2023-11-18T00:26:21;13.40;;;10.35;;
18905;SDS011;9585;51.018;4.282;2023-11-18T00:28:48;13.48;;;10.23;;
18905;SDS011;9585;51.018;4.282;2023-11-18T00:31:16;13.45;;;9.50;;
18905;SDS011;9585;51.018;4.282;2023-11-18T00:33:44;13.85;;;9.30;;
18905;SDS011;9585;51.018;4.282;2023-11-18T00:36:13;11.15;;;9.07;;
18905;SDS011;9585;51.018;4.282;2023-11-18T00:38:41;14.02;;;9.13;;
18905;SDS011;9585;51.018;4.282;2023-11-18T00:41:09;14.38;;;10.27;;
18905;SDS011;9585;51.018;4.282;2023-11-18T00:43:38;12.82;;;10.18;;
18905;SDS011;9585;51.018;4.282;2023-11-18T00:46:05;15.25;;;11.23;;
18905;SDS011;9585;51.018;4.282;2023-11-18T00:48:35;18.52;;;10.75;;
18905;SDS011;9585;51.018;4.282;2023-11-18T00:51:03;13.10;;;9.75;;
18905;SDS011;9585;51.018;4.282;2023-11-18T00:53:34;11.98;;;8.95;;
18905;SDS011;9585;51.018;4.282;2023-11-18T00:56:02;13.65;;;9.18;;
18905;SDS011;9585;51.018;4.282;2023-11-18T00:58:33;14.52;;;10.38;;
18905;SDS011;9585;51.018;4.282;2023-11-18T01:01:05;12.55;;;9.63;;
18905;SDS011;9585;51.018;4.282;2023-11-18T01:03:33;15.80;;;10.38;;
18905;SDS011;9585;51.018;4.282;2023-11-18T01:06:01;12.82;;;9.85;;
18905;SDS011;9585;51.018;4.282;2023-11-18T01:08:30;15.65;;;10.25;;
18905;SDS011;9585;51.018;4.282;2023-11-18T01:10:59;14.25;;;8.88;;
18905;SDS011;9585;51.018;4.282;2023-11-18T01:13:27;11.50;;;8.30;;
18905;SDS011;9585;51.018;4.282;2023-11-18T01:15:55;12.68;;;8.57;;
18905;SDS011;9585;51.018;4.282;2023-11-18T01:18:23;10.40;;;8.30;;
18905;SDS011;9585;51.018;4.282;2023-11-18T01:20:51;11.10;;;8.80;;
18905;SDS011;9585;51.018;4.282;2023-11-18T01:23:18;12.80;;;9.20;;
18905;SDS011;9585;51.018;4.282;2023-11-18T01:25:46;13.65;;;9.60;;
18905;SDS011;9585;51.018;4.282;2023-11-18T01:28:17;12.45;;;8.95;;
18905;SDS011;9585;51.018;4.282;2023-11-18T01:30:45;17.23;;;11.40;;
18905;SDS011;9585;51.018;4.282;2023-11-18T01:33:13;15.07;;;10.48;;
18905;SDS011;9585;51.018;4.282;2023-11-18T01:35:41;16.38;;;10.10;;
18905;SDS011;9585;51.018;4.282;2023-11-18T01:38:09;16.13;;;10.55;;
18905;SDS011;9585;51.018;4.282;2023-11-18T01:40:38;14.48;;;9.75;;
18905;SDS011;9585;51.018;4.282;2023-11-18T01:43:08;12.10;;;8.70;;
18905;SDS011;9585;51.018;4.282;2023-11-18T01:45:41;12.40;;;7.88;;
18905;SDS011;9585;51.018;4.282;2023-11-18T01:48:09;11.65;;;8.52;;
18905;SDS011;9585;51.018;4.282;2023-11-18T01:50:36;9.95;;;7.20;;
18905;SDS011;9585;51.018;4.282;2023-11-18T01:53:06;9.95;;;7.55;;
18905;SDS011;9585;51.018;4.282;2023-11-18T01:55:35;14.90;;;9.35;;
18905;SDS011;9585;51.018;4.282;2023-11-18T01:58:04;13.63;;;7.93;;
18905;SDS011;9585;51.018;4.282;2023-11-18T02:00:36;11.98;;;7.55;;
18905;SDS011;9585;51.018;4.282;2023-11-18T02:03:07;14.55;;;7.70;;
18905;SDS011;9585;51.018;4.282;2023-11-18T02:05:35;11.43;;;7.50;;
18905;SDS011;9585;51.018;4.282;2023-11-18T02:08:04;12.73;;;8.02;;
18905;SDS011;9585;51.018;4.282;2023-11-18T02:10:33;10.00;;;7.25;;
18905;SDS011;9585;51.018;4.282;2023-11-18T02:13:04;10.57;;;7.07;;
18905;SDS011;9585;51.018;4.282;2023-11-18T02:15:37;10.68;;;6.28;;
18905;SDS011;9585;51.018;4.282;2023-11-18T02:18:08;15.23;;;7.78;;
18905;SDS011;9585;51.018;4.282;2023-11-18T02:20:37;9.93;;;6.22;;
18905;SDS011;9585;51.018;4.282;2023-11-18T02:23:06;15.23;;;7.45;;
18905;SDS011;9585;51.018;4.282;2023-11-18T02:25:34;10.50;;;;;
18905;SDS011;9585;51.018;4.282;2023-11-18T02:28:11;11.77;;;6.38;;
18905;SDS011;9585;51.018;4.282;2023-11-18T02:30:39;13.85;;;6.82;;
18905;SDS011;9585;51.018;4.282;2023-11-18T02:33:09;11.07;;;7.13;;
18905;SDS011;9585;51.018;4.282;2023-11-18T02:35:45;11.52;;;6.65;;
18905;SDS011;9585;51.018;4.282;2023-11-18T02:38:19;10.95;;;6.20;;
18905;SDS011;9585;51.018;4.282;2023-11-18T02:40:53;10.60;;;5.72;;
18905;SDS011;9585;51.018;4.282;2023-11-18T02:43:24;11.75;;;5.60;;
18905;SDS011;9585;51.018;4.282;2023-11-18T02:45:54;14.10;;;6.32;;
18905;SDS011;9585;51.018;4.282;2023-11-18T02:48:26;11.82;;;6.25;;
18905;SDS011;9585;51.018;4.282;2023-11-18T02:50:54;13.45;;;6.68;;
18905;SDS011;9585;51.018;4.282;2023-11-18T02:53:22;15.55;;;6.97;;
18905;SDS011;9585;51.018;4.282;2023-11-18T02:55:50;14.75;;;6.88;;
18905;SDS011;9585;51.018;4.282;2023-11-18T02:58:19;12.07;;;6.13;;
18905;SDS011;9585;51.018;4.282;2023-11-18T03:00:47;15.60;;;6.28;;
18905;SDS011;9585;51.018;4.282;2023-11-18T03:03:15;14.20;;;6.30;;
18905;SDS011;9585;51.018;4.282;2023-11-18T03:05:43;11.07;;;5.75;;
18905;SDS011;9585;51.018;4.282;2023-11-18T03:08:11;11.65;;;5.53;;
18905;SDS011;9585;51.018;4.282;2023-11-18T03:10:39;11.45;;;5.65;;
18905;SDS011;9585;51.018;4.282;2023-11-18T03:13:09;13.20;;;5.85;;
18905;SDS011;9585;51.018;4.282;2023-11-18T03:15:40;13.88;;;5.57;;
18905;SDS011;9585;51.018;4.282;2023-11-18T03:18:08;12.02;;;5.72;;
18905;SDS011;9585;51.018;4.282;2023-11-18T03:20:36;12.55;;;5.88;;
18905;SDS011;9585;51.018;4.282;2023-11-18T03:23:03;11.02;;;4.78;;
18905;SDS011;9585;51.018;4.282;2023-11-18T03:25:33;10.73;;;5.40;;
18905;SDS011;9585;51.018;4.282;2023-11-18T03:28:00;13.93;;;5.57;;
18905;SDS011;9585;51.018;4.282;2023-11-18T03:30:30;9.52;;;5.20;;
18905;SDS011;9585;51.018;4.282;2023-11-18T03:32:59;11.63;;;5.60;;
18905;SDS011;9585;51.018;4.282;2023-11-18T03:35:27;10.60;;;5.28;;
18905;SDS011;9585;51.018;4.282;2023-11-18T03:37:55;12.27;;;5.50;;
18905;SDS011;9585;51.018;4.282;2023-11-18T03:40:23;18.25;;;6.45;;
18905;SDS011;9585;51.018;4.282;2023-11-18T03:42:50;9.90;;;5.13;;
18905;SDS011;9585;51.018;4.282;2023-11-18T03:45:19;13.38;;;5.60;;
18905;SDS011;9585;51.018;4.282;2023-11-18T03:47:46;14.45;;;5.80;;
18905;SDS011;9585;51.018;4.282;2023-11-18T03:50:17;11.40;;;4.93;;
18905;SDS011;9585;51.018;4.282;2023-11-18T03:52:45;11.00;;;5.35;;
18905;SDS011;9585;51.018;4.282;2023-11-18T03:55:12;11.55;;;4.72;;
18905;SDS011;9585;51.018;4.282;2023-11-18T03:57:40;7.97;;;4.10;;
18905;SDS011;9585;51.018;4.282;2023-11-18T04:00:11;13.10;;;4.43;;
18905;SDS011;9585;51.018;4.282;2023-11-18T04:02:41;13.82;;;5.30;;
18905;SDS011;9585;51.018;4.282;2023-11-18T04:05:11;6.97;;;3.75;;
18905;SDS011;9585;51.018;4.282;2023-11-18T04:07:40;6.70;;;3.55;;
18905;SDS011;9585;51.018;4.282;2023-11-18T04:10:08;8.05;;;3.38;;
18905;SDS011;9585;51.018;4.282;2023-11-18T04:12:36;6.97;;;3.28;;
18905;SDS011;9585;51.018;4.282;2023-11-18T04:15:04;8.07;;;3.28;;
18905;SDS011;9585;51.018;4.282;2023-11-18T04:17:33;7.70;;;2.83;;
18905;SDS011;9585;51.018;4.282;2023-11-18T04:20:00;8.55;;;2.92;;
18905;SDS011;9585;51.018;4.282;2023-11-18T04:22:30;7.32;;;2.70;;
18905;SDS011;9585;51.018;4.282;2023-11-18T04:25:00;9.02;;;3.00;;
18905;SDS011;9585;51.018;4.282;2023-11-18T04:27:27;8.13;;;2.95;;
18905;SDS011;9585;51.018;4.282;2023-11-18T04:29:55;9.75;;;2.83;;
18905;SDS011;9585;51.018;4.282;2023-11-18T04:32:23;8.48;;;2.63;;
18905;SDS011;9585;51.018;4.282;2023-11-18T04:34:51;9.70;;;2.58;;
18905;SDS011;9585;51.018;4.282;2023-11-18T04:37:18;7.82;;;2.65;;
18905;SDS011;9585;51.018;4.282;2023-11-18T04:39:46;6.15;;;2.33;;
18905;SDS011;9585;51.018;4.282;2023-11-18T04:42:15;6.53;;;2.70;;
18905;SDS011;9585;51.018;4.282;2023-11-18T04:44:43;8.85;;;2.67;;
18905;SDS011;9585;51.018;4.282;2023-11-18T04:47:11;6.63;;;2.40;;
18905;SDS011;9585;51.018;4.282;2023-11-18T04:49:39;8.77;;;2.40;;
18905;SDS011;9585;51.018;4.282;2023-11-18T04:52:06;6.50;;;2.28;;
18905;SDS011;9585;51.018;4.282;2023-11-18T04:54:34;5.93;;;2.40;;
18905;SDS011;9585;51.018;4.282;2023-11-18T04:57:02;6.70;;;2.45;;
18905;SDS011;9585;51.018;4.282;2023-11-18T04:59:34;3.83;;;1.95;;
18905;SDS011;9585;51.018;4.282;2023-11-18T05:02:01;7.43;;;2.08;;
18905;SDS011;9585;51.018;4.282;2023-11-18T05:04:29;10.02;;;2.35;;
18905;SDS011;9585;51.018;4.282;2023-11-18T05:06:56;4.95;;;2.20;;
18905;SDS011;9585;51.018;4.282;2023-11-18T05:09:23;4.63;;;2.03;;
18905;SDS011;9585;51.018;4.282;2023-11-18T05:11:51;9.02;;;2.33;;
18905;SDS011;9585;51.018;4.282;2023-11-18T05:14:20;6.55;;;2.08;;
18905;SDS011;9585;51.018;4.282;2023-11-18T05:16:49;9.45;;;2.20;;
18905;SDS011;9585;51.018;4.282;2023-11-18T05:19:16;7.63;;;2.33;;
18905;SDS011;9585;51.018;4.282;2023-11-18T05:21:44;6.93;;;1.90;;
18905;SDS011;9585;51.018;4.282;2023-11-18T05:24:14;5.10;;;1.77;;
18905;SDS011;9585;51.018;4.282;2023-11-18T05:26:42;5.45;;;1.83;;
18905;SDS011;9585;51.018;4.282;2023-11-18T05:29:11;3.72;;;1.63;;
18905;SDS011;9585;51.018;4.282;2023-11-18T05:31:41;7.28;;;1.88;;
18905;SDS011;9585;51.018;4.282;2023-11-18T05:34:10;5.70;;;2.10;;
18905;SDS011;9585;51.018;4.282;2023-11-18T05:36:38;5.75;;;1.95;;
18905;SDS011;9585;51.018;4.282;2023-11-18T05:39:05;7.18;;;1.77;;
18905;SDS011;9585;51.018;4.282;2023-11-18T05:41:34;5.05;;;1.70;;
18905;SDS011;9585;51.018;4.282;2023-11-18T05:44:05;2.92;;;1.50;;
18905;SDS011;9585;51.018;4.282;2023-11-18T05:46:34;4.80;;;1.50;;
18905;SDS011;9585;51.018;4.282;2023-11-18T05:49:04;3.40;;;1.35;;
18905;SDS011;9585;51.018;4.282;2023-11-18T05:51:34;7.25;;;1.92;;
18905;SDS011;9585;51.018;4.282;2023-11-18T05:54:02;6.80;;;1.92;;
18905;SDS011;9585;51.018;4.282;2023-11-18T05:56:30;5.07;;;1.55;;
18905;SDS011;9585;51.018;4.282;2023-11-18T05:58:59;10.73;;;2.10;;
18905;SDS011;9585;51.018;4.282;2023-11-18T06:01:28;5.32;;;1.60;;
18905;SDS011;9585;51.018;4.282;2023-11-18T06:03:56;5.93;;;1.50;;
18905;SDS011;9585;51.018;4.282;2023-11-18T06:06:26;6.43;;;1.58;;
18905;SDS011;9585;51.018;4.282;2023-11-18T06:08:55;6.45;;;1.48;;
18905;SDS011;9585;51.018;4.282;2023-11-18T06:11:24;4.90;;;1.42;;
18905;SDS011;9585;51.018;4.282;2023-11-18T06:13:52;5.78;;;1.48;;
18905;SDS011;9585;51.018;4.282;2023-11-18T06:16:20;4.70;;;1.50;;
18905;SDS011;9585;51.018;4.282;2023-11-18T06:18:50;6.95;;;1.35;;
18905;SDS011;9585;51.018;4.282;2023-11-18T06:21:18;4.70;;;1.40;;
18905;SDS011;9585;51.018;4.282;2023-11-18T06:23:49;7.20;;;1.65;;
18905;SDS011;9585;51.018;4.282;2023-11-18T06:26:19;7.00;;;1.58;;
18905;SDS011;9585;51.018;4.282;2023-11-18T06:28:47;2.72;;;1.25;;
18905;SDS011;9585;51.018;4.282;2023-11-18T06:31:15;3.35;;;1.35;;
18905;SDS011;9585;51.018;4.282;2023-11-18T06:33:44;5.40;;;1.70;;
18905;SDS011;9585;51.018;4.282;2023-11-18T06:36:16;5.18;;;1.40;;
18905;SDS011;9585;51.018;4.282;2023-11-18T06:38:44;4.70;;;1.60;;
18905;SDS011;9585;51.018;4.282;2023-11-18T06:41:12;6.03;;;1.80;;
18905;SDS011;9585;51.018;4.282;2023-11-18T06:43:44;4.43;;;1.35;;
18905;SDS011;9585;51.018;4.282;2023-11-18T06:46:22;4.95;;;1.50;;
18905;SDS011;9585;51.018;4.282;2023-11-18T06:48:50;4.40;;;1.45;;
18905;SDS011;9585;51.018;4.282;2023-11-18T06:51:19;4.15;;;1.50;;
18905;SDS011;9585;51.018;4.282;2023-11-18T06:53:49;6.47;;;1.60;;
18905;SDS011;9585;51.018;4.282;2023-11-18T06:56:17;6.78;;;1.60;;
18905;SDS011;9585;51.018;4.282;2023-11-18T06:58:46;4.57;;;1.63;;
18905;SDS011;9585;51.018;4.282;2023-11-18T07:01:14;7.18;;;1.50;;
18905;SDS011;9585;51.018;4.282;2023-11-18T07:03:42;5.03;;;1.50;;
18905;SDS011;9585;51.018;4.282;2023-11-18T07:06:10;3.80;;;1.63;;
18905;SDS011;9585;51.018;4.282;2023-11-18T07:08:39;7.60;;;1.88;;
18905;SDS011;9585;51.018;4.282;2023-11-18T07:11:07;6.13;;;1.70;;
18905;SDS011;9585;51.018;4.282;2023-11-18T07:13:35;6.88;;;1.60;;
18905;SDS011;9585;51.018;4.282;2023-11-18T07:16:06;5.65;;;1.73;;
18905;SDS011;9585;51.018;4.282;2023-11-18T07:18:34;6.57;;;1.60;;
18905;SDS011;9585;51.018;4.282;2023-11-18T07:21:02;5.40;;;1.80;;
18905;SDS011;9585;51.018;4.282;2023-11-18T07:23:31;6.35;;;1.55;;
18905;SDS011;9585;51.018;4.282;2023-11-18T07:25:58;6.32;;;1.50;;
18905;SDS011;9585;51.018;4.282;2023-11-18T07:28:27;6.32;;;1.52;;
18905;SDS011;9585;51.018;4.282;2023-11-18T07:30:54;3.38;;;1.20;;
18905;SDS011;9585;51.018;4.282;2023-11-18T07:33:24;3.50;;;1.30;;
18905;SDS011;9585;51.018;4.282;2023-11-18T07:35:52;4.75;;;1.52;;
18905;SDS011;9585;51.018;4.282;2023-11-18T07:38:20;3.25;;;1.50;;
18905;SDS011;9585;51.018;4.282;2023-11-18T07:40:48;6.25;;;1.83;;
18905;SDS011;9585;51.018;4.282;2023-11-18T07:43:17;4.70;;;1.55;;
18905;SDS011;9585;51.018;4.282;2023-11-18T07:45:46;7.65;;;5.05;;
18905;SDS011;9585;51.018;4.282;2023-11-18T07:48:16;7.55;;;2.13;;
18905;SDS011;9585;51.018;4.282;2023-11-18T07:50:47;7.50;;;2.90;;
18905;SDS011;9585;51.018;4.282;2023-11-18T07:53:14;7.75;;;2.70;;
18905;SDS011;9585;51.018;4.282;2023-11-18T07:55:43;10.80;;;2.75;;
18905;SDS011;9585;51.018;4.282;2023-11-18T07:58:10;6.82;;;2.33;;
18905;SDS011;9585;51.018;4.282;2023-11-18T08:00:38;5.07;;;2.00;;
18905;SDS011;9585;51.018;4.282;2023-11-18T08:03:05;5.85;;;2.15;;
18905;SDS011;9585;51.018;4.282;2023-11-18T08:05:36;7.05;;;2.22;;
18905;SDS011;9585;51.018;4.282;2023-11-18T08:08:06;10.75;;;5.20;;
18905;SDS011;9585;51.018;4.282;2023-11-18T08:10:35;7.97;;;3.08;;
18905;SDS011;9585;51.018;4.282;2023-11-18T08:13:04;6.82;;;2.55;;
18905;SDS011;9585;51.018;4.282;2023-11-18T08:15:33;5.78;;;2.45;;
18905;SDS011;9585;51.018;4.282;2023-11-18T08:18:00;8.52;;;2.72;;
18905;SDS011;9585;51.018;4.282;2023-11-18T08:20:29;5.03;;;2.50;;
18905;SDS011;9585;51.018;4.282;2023-11-18T08:22:56;8.43;;;2.60;;
18905;SDS011;9585;51.018;4.282;2023-11-18T08:25:26;9.65;;;3.00;;
18905;SDS011;9585;51.018;4.282;2023-11-18T08:27:53;4.95;;;2.58;;
18905;SDS011;9585;51.018;4.282;2023-11-18T08:30:21;5.97;;;2.90;;
18905;SDS011;9585;51.018;4.282;2023-11-18T08:32:49;5.55;;;3.10;;
18905;SDS011;9585;51.018;4.282;2023-11-18T08:35:16;6.05;;;2.58;;
18905;SDS011;9585;51.018;4.282;2023-11-18T08:37:43;6.95;;;2.85;;
18905;SDS011;9585;51.018;4.282;2023-11-18T08:40:12;9.75;;;3.85;;
18905;SDS011;9585;51.018;4.282;2023-11-18T08:42:43;6.30;;;3.20;;
18905;SDS011;9585;51.018;4.282;2023-11-18T08:45:15;12.70;;;3.75;;
18905;SDS011;9585;51.018;4.282;2023-11-18T08:47:44;8.93;;;3.40;;
18905;SDS011;9585;51.018;4.282;2023-11-18T08:50:12;9.77;;;4.35;;
18905;SDS011;9585;51.018;4.282;2023-11-18T08:52:41;6.55;;;3.30;;
18905;SDS011;9585;51.018;4.282;2023-11-18T08:55:12;10.70;;;3.97;;
18905;SDS011;9585;51.018;4.282;2023-11-18T08:57:45;7.68;;;4.43;;
18905;SDS011;9585;51.018;4.282;2023-11-18T09:00:23;6.60;;;3.42;;
18905;SDS011;9585;51.018;4.282;2023-11-18T09:03:13;11.77;;;5.55;;
18905;SDS011;9585;51.018;4.282;2023-11-18T09:05:50;9.65;;;5.00;;
18905;SDS011;9585;51.018;4.282;2023-11-18T09:08:29;9.82;;;4.57;;
18905;SDS011;9585;51.018;4.282;2023-11-18T09:11:00;8.65;;;4.07;;
18905;SDS011;9585;51.018;4.282;2023-11-18T09:13:31;7.15;;;3.90;;
18905;SDS011;9585;51.018;4.282;2023-11-18T09:16:01;7.18;;;3.95;;
18905;SDS011;9585;51.018;4.282;2023-11-18T09:18:33;7.93;;;4.20;;
18905;SDS011;9585;51.018;4.282;2023-11-18T09:21:01;9.10;;;3.92;;
18905;SDS011;9585;51.018;4.282;2023-11-18T09:23:30;9.40;;;4.30;;
18905;SDS011;9585;51.018;4.282;2023-11-18T09:25:59;7.15;;;4.00;;
18905;SDS011;9585;51.018;4.282;2023-11-18T09:28:27;6.85;;;4.10;;
18905;SDS011;9585;51.018;4.282;2023-11-18T09:30:57;8.75;;;4.03;;
18905;SDS011;9585;51.018;4.282;2023-11-18T09:33:26;6.93;;;4.13;;
18905;SDS011;9585;51.018;4.282;2023-11-18T09:35:58;7.72;;;4.90;;
18905;SDS011;9585;51.018;4.282;2023-11-18T09:38:26;7.72;;;4.60;;
18905;SDS011;9585;51.018;4.282;2023-11-18T09:40:57;7.97;;;4.57;;
18905;SDS011;9585;51.018;4.282;2023-11-18T09:43:28;7.55;;;4.15;;
18905;SDS011;9585;51.018;4.282;2023-11-18T09:46:02;7.72;;;4.10;;
18905;SDS011;9585;51.018;4.282;2023-11-18T09:48:33;6.97;;;3.83;;
18905;SDS011;9585;51.018;4.282;2023-11-18T09:51:06;7.35;;;4.28;;
18905;SDS011;9585;51.018;4.282;2023-11-18T09:53:35;7.28;;;3.80;;
18905;SDS011;9585;51.018;4.282;2023-11-18T09:56:07;5.53;;;4.28;;
18905;SDS011;9585;51.018;4.282;2023-11-18T09:58:45;6.88;;;3.90;;
18905;SDS011;9585;51.018;4.282;2023-11-18T10:01:23;4.78;;;3.53;;
18905;SDS011;9585;51.018;4.282;2023-11-18T10:03:59;7.47;;;4.05;;
18905;SDS011;9585;51.018;4.282;2023-11-18T10:06:31;6.43;;;4.53;;
18905;SDS011;9585;51.018;4.282;2023-11-18T10:09:02;7.93;;;5.25;;
18905;SDS011;9585;51.018;4.282;2023-11-18T10:11:40;7.68;;;4.35;;
18905;SDS011;9585;51.018;4.282;2023-11-18T10:14:12;6.22;;;3.70;;
18905;SDS011;9585;51.018;4.282;2023-11-18T10:16:44;7.32;;;4.13;;
18905;SDS011;9585;51.018;4.282;2023-11-18T10:19:13;7.03;;;4.57;;
18905;SDS011;9585;51.018;4.282;2023-11-18T10:21:42;7.75;;;4.32;;
18905;SDS011;9585;51.018;4.282;2023-11-18T10:24:14;7.63;;;4.22;;
18905;SDS011;9585;51.018;4.282;2023-11-18T10:26:44;8.15;;;5.97;;
18905;SDS011;9585;51.018;4.282;2023-11-18T10:29:13;6.32;;;3.80;;
18905;SDS011;9585;51.018;4.282;2023-11-18T10:31:45;7.97;;;3.95;;
18905;SDS011;9585;51.018;4.282;2023-11-18T10:34:13;5.65;;;3.63;;
18905;SDS011;9585;51.018;4.282;2023-11-18T10:36:42;5.28;;;3.53;;
18905;SDS011;9585;51.018;4.282;2023-11-18T10:39:31;5.70;;;3.72;;
18905;SDS011;9585;51.018;4.282;2023-11-18T10:42:00;6.18;;;3.75;;
18905;SDS011;9585;51.018;4.282;2023-11-18T10:44:28;4.45;;;3.47;;
18905;SDS011;9585;51.018;4.282;2023-11-18T10:46:57;4.65;;;3.65;;
18905;SDS011;9585;51.018;4.282;2023-11-18T10:49:26;5.88;;;3.45;;
18905;SDS011;9585;51.018;4.282;2023-11-18T10:51:55;5.85;;;3.75;;
18905;SDS011;9585;51.018;4.282;2023-11-18T10:54:23;4.70;;;3.58;;
18905;SDS011;9585;51.018;4.282;2023-11-18T10:56:51;4.38;;;3.15;;
18905;SDS011;9585;51.018;4.282;2023-11-18T10:59:22;5.28;;;3.63;;
18905;SDS011;9585;51.018;4.282;2023-11-18T11:01:50;4.22;;;3.78;;
18905;SDS011;9585;51.018;4.282;2023-11-18T11:04:20;5.07;;;3.22;;
18905;SDS011;9585;51.018;4.282;2023-11-18T11:06:48;5.47;;;2.88;;
18905;SDS011;9585;51.018;4.282;2023-11-18T11:09:19;5.20;;;3.47;;
18905;SDS011;9585;51.018;4.282;2023-11-18T11:11:52;10.85;;;6.45;;
18905;SDS011;9585;51.018;4.282;2023-11-18T11:14:24;8.95;;;4.88;;
18905;SDS011;9585;51.018;4.282;2023-11-18T11:17:00;5.80;;;3.42;;
18905;SDS011;9585;51.018;4.282;2023-11-18T11:19:38;5.85;;;3.22;;
18905;SDS011;9585;51.018;4.282;2023-11-18T11:22:14;4.00;;;3.00;;
18905;SDS011;9585;51.018;4.282;2023-11-18T11:24:52;4.07;;;3.05;;
18905;SDS011;9585;51.018;4.282;2023-11-18T11:27:37;4.00;;;2.28;;
18905;SDS011;9585;51.018;4.282;2023-11-18T11:30:16;3.17;;;2.50;;
18905;SDS011;9585;51.018;4.282;2023-11-18T11:32:50;3.83;;;2.40;;
18905;SDS011;9585;51.018;4.282;2023-11-18T11:35:22;4.63;;;2.13;;
18905;SDS011;9585;51.018;4.282;2023-11-18T11:37:52;2.83;;;2.20;;
18905;SDS011;9585;51.018;4.282;2023-11-18T11:40:28;2.25;;;1.90;;
18905;SDS011;9585;51.018;4.282;2023-11-18T11:42:56;2.17;;;1.55;;
18905;SDS011;9585;51.018;4.282;2023-11-18T11:45:30;2.17;;;1.50;;
18905;SDS011;9585;51.018;4.282;2023-11-18T11:47:59;3.75;;;1.52;;
18905;SDS011;9585;51.018;4.282;2023-11-18T11:50:48;3.30;;;1.63;;
18905;SDS011;9585;51.018;4.282;2023-11-18T11:53:30;2.38;;;1.50;;
18905;SDS011;9585;51.018;4.282;2023-11-18T11:56:02;2.22;;;1.70;;
18905;SDS011;9585;51.018;4.282;2023-11-18T11:58:39;2.60;;;1.50;;
18905;SDS011;9585;51.018;4.282;2023-11-18T12:01:18;1.90;;;1.80;;
18905;SDS011;9585;51.018;4.282;2023-11-18T12:03:56;2.65;;;1.27;;
18905;SDS011;9585;51.018;4.282;2023-11-18T12:06:33;3.80;;;1.90;;
18905;SDS011;9585;51.018;4.282;2023-11-18T12:09:08;2.47;;;1.42;;
18905;SDS011;9585;51.018;4.282;2023-11-18T12:11:37;2.45;;;1.40;;
18905;SDS011;9585;51.018;4.282;2023-11-18T12:14:08;2.45;;;1.50;;
18905;SDS011;9585;51.018;4.282;2023-11-18T12:17:01;2.17;;;1.50;;
18905;SDS011;9585;51.018;4.282;2023-11-18T12:19:39;2.20;;;1.90;;
18905;SDS011;9585;51.018;4.282;2023-11-18T12:22:16;3.88;;;1.85;;
18905;SDS011;9585;51.018;4.282;2023-11-18T12:28:00;1.45;;;1.23;;
18905;SDS011;9585;51.018;4.282;2023-11-18T12:30:38;2.00;;;1.38;;
18905;SDS011;9585;51.018;4.282;2023-11-18T12:33:17;1.50;;;1.30;;
18905;SDS011;9585;51.018;4.282;2023-11-18T12:39:14;2.10;;;1.33;;
18905;SDS011;9585;51.018;4.282;2023-11-18T12:42:20;2.63;;;2.00;;
18905;SDS011;9585;51.018;4.282;2023-11-18T12:45:14;1.55;;;1.10;;
18905;SDS011;9585;51.018;4.282;2023-11-18T12:48:02;2.53;;;1.67;;
18905;SDS011;9585;51.018;4.282;2023-11-18T12:50:38;1.70;;;1.00;;
18905;SDS011;9585;51.018;4.282;2023-11-18T12:53:09;2.58;;;1.20;;
18905;SDS011;9585;51.018;4.282;2023-11-18T12:55:41;2.10;;;1.42;;
18905;SDS011;9585;51.018;4.282;2023-11-18T12:58:14;1.05;;;0.95;;
18905;SDS011;9585;51.018;4.282;2023-11-18T13:00:46;1.40;;;0.90;;
18905;SDS011;9585;51.018;4.282;2023-11-18T13:03:15;2.10;;;1.50;;
18905;SDS011;9585;51.018;4.282;2023-11-18T13:05:43;1.75;;;1.60;;
18905;SDS011;9585;51.018;4.282;2023-11-18T13:08:10;1.13;;;1.00;;
18905;SDS011;9585;51.018;4.282;2023-11-18T13:10:42;1.23;;;0.80;;
18905;SDS011;9585;51.018;4.282;2023-11-18T13:13:10;1.20;;;1.10;;
18905;SDS011;9585;51.018;4.282;2023-11-18T13:15:48;1.10;;;1.00;;
18905;SDS011;9585;51.018;4.282;2023-11-18T13:18:15;6.00;;;5.43;;
18905;SDS011;9585;51.018;4.282;2023-11-18T13:20:53;1.73;;;1.60;;
18905;SDS011;9585;51.018;4.282;2023-11-18T13:23:24;2.28;;;2.17;;
18905;SDS011;9585;51.018;4.282;2023-11-18T13:25:55;1.30;;;1.05;;
18905;SDS011;9585;51.018;4.282;2023-11-18T13:28:25;1.27;;;0.77;;
18905;SDS011;9585;51.018;4.282;2023-11-18T13:30:53;1.77;;;0.80;;
18905;SDS011;9585;51.018;4.282;2023-11-18T13:33:20;0.60;;;0.60;;
18905;SDS011;9585;51.018;4.282;2023-11-18T13:35:49;0.80;;;0.80;;
18905;SDS011;9585;51.018;4.282;2023-11-18T13:38:17;1.00;;;0.90;;
18905;SDS011;9585;51.018;4.282;2023-11-18T13:40:45;1.60;;;0.60;;
18905;SDS011;9585;51.018;4.282;2023-11-18T13:43:17;1.75;;;1.40;;
18905;SDS011;9585;51.018;4.282;2023-11-18T13:45:50;1.55;;;0.95;;
18905;SDS011;9585;51.018;4.282;2023-11-18T13:48:20;1.25;;;1.00;;
18905;SDS011;9585;51.018;4.282;2023-11-18T13:50:49;1.35;;;0.68;;
18905;SDS011;9585;51.018;4.282;2023-11-18T13:53:17;0.60;;;0.60;;
18905;SDS011;9585;51.018;4.282;2023-11-18T13:55:45;0.75;;;0.75;;
18905;SDS011;9585;51.018;4.282;2023-11-18T13:58:15;0.68;;;0.63;;
18905;SDS011;9585;51.018;4.282;2023-11-18T14:00:44;1.35;;;0.90;;
18905;SDS011;9585;51.018;4.282;2023-11-18T14:03:12;0.60;;;0.60;;
18905;SDS011;9585;51.018;4.282;2023-11-18T14:05:42;0.70;;;0.50;;
18905;SDS011;9585;51.018;4.282;2023-11-18T14:08:11;1.45;;;1.35;;
18905;SDS011;9585;51.018;4.282;2023-11-18T14:10:49;1.60;;;0.60;;
18905;SDS011;9585;51.018;4.282;2023-11-18T14:13:19;0.70;;;0.70;;
18905;SDS011;9585;51.018;4.282;2023-11-18T14:15:47;1.02;;;0.73;;
18905;SDS011;9585;51.018;4.282;2023-11-18T14:18:26;0.57;;;0.50;;
18905;SDS011;9585;51.018;4.282;2023-11-18T14:20:57;0.88;;;0.52;;
18905;SDS011;9585;51.018;4.282;2023-11-18T14:29:22;1.05;;;0.70;;
18905;SDS011;9585;51.018;4.282;2023-11-18T14:32:01;1.77;;;1.20;;
18905;SDS011;9585;51.018;4.282;2023-11-18T14:34:43;1.20;;;1.10;;
18905;SDS011;9585;51.018;4.282;2023-11-18T14:41:18;1.40;;;1.30;;
18905;SDS011;9585;51.018;4.282;2023-11-18T14:51:15;2.60;;;1.70;;
18905;SDS011;9585;51.018;4.282;2023-11-18T15:19:56;2.00;;;1.40;;
18905;SDS011;9585;51.018;4.282;2023-11-18T15:22:39;3.10;;;1.50;;
18905;SDS011;9585;51.018;4.282;2023-11-18T15:29:16;2.50;;;1.70;;
18905;SDS011;9585;51.018;4.282;2023-11-18T15:31:48;2.22;;;1.90;;
18905;SDS011;9585;51.018;4.282;2023-11-18T15:34:15;3.30;;;2.00;;
18905;SDS011;9585;51.018;4.282;2023-11-18T15:36:47;3.13;;;1.83;;
18905;SDS011;9585;51.018;4.282;2023-11-18T15:39:18;2.63;;;1.42;;
18905;SDS011;9585;51.018;4.282;2023-11-18T15:41:45;2.38;;;1.67;;
18905;SDS011;9585;51.018;4.282;2023-11-18T15:44:18;3.17;;;2.05;;
18905;SDS011;9585;51.018;4.282;2023-11-18T15:46:48;2.75;;;1.90;;
18905;SDS011;9585;51.018;4.282;2023-11-18T15:49:20;2.47;;;1.50;;
18905;SDS011;9585;51.018;4.282;2023-11-18T15:52:04;2.55;;;1.40;;
18905;SDS011;9585;51.018;4.282;2023-11-18T15:54:36;2.25;;;1.50;;
18905;SDS011;9585;51.018;4.282;2023-11-18T15:57:07;2.75;;;1.20;;
18905;SDS011;9585;51.018;4.282;2023-11-18T15:59:36;2.25;;;1.58;;
18905;SDS011;9585;51.018;4.282;2023-11-18T16:02:13;1.48;;;1.23;;
18905;SDS011;9585;51.018;4.282;2023-11-18T16:04:48;3.40;;;1.70;;
18905;SDS011;9585;51.018;4.282;2023-11-18T16:07:15;1.90;;;1.70;;
18905;SDS011;9585;51.018;4.282;2023-11-18T16:09:49;2.42;;;1.67;;
18905;SDS011;9585;51.018;4.282;2023-11-18T16:12:32;3.03;;;1.95;;